WHISKEYTOWN DAM (USBR) (WHI)

Elevation: 1210' · SACRAMENTO R basin · Operator: US Bureau of Reclamation

Provisional data, subject to change.
Query executed Monday at 19:26:41   clock

Select a sensor type for a plot of data.
Note: Reservoir Flows are daily averages.

Earlier

Date RES ELE    STORAGE    RES CHG    OUTFLOW    INFLOW    EVAP    RIV REL    PPT INC    RAIN    SPILL    DIS PWR   
 FEET   AF   AF   CFS   CFS   CFS   CFS   INCHES   INCHES   CFS   CFS  
03/22/2015 1198.21 204828 0 199 200 1 182 0.00 47.26 0 17
03/23/2015 1198.18 204739 -89 197 155 3 182 0.55 47.81 0 15
03/24/2015 1198.13 204592 -147 199 128 3 182 0.03 47.84 0 17
03/25/2015 1198.08 204445 -147 201 128 1 181 0.01 47.85 0 20
03/26/2015 1198.44 205505 1060 195 734 5 181 0.00 47.85 0 14
03/27/2015 1198.55 205829 324 195 370 12 181 0.00 47.85 0 14
03/28/2015 1198.49 205653 -176 217 140 12 181 0.00 47.85 0 36
03/29/2015 1198.42 205446 -207 202 99 1 181 0.00 47.85 0 21
03/30/2015 1198.33 205181 -265 198 75 11 181 0.00 47.85 0 17
03/31/2015 1198.24 204916 -265 198 70 6 181 0.00 47.85 0 17
04/01/2015 1198.16 204680 -236 196 87 10 181 0.00 47.85 0 15
04/02/2015 1198.07 204415 -265 208 84 10 182 0.00 47.85 0 26
04/03/2015 1198.29 205063 648 196 533 10 182 0.00 47.85 0 14
04/04/2015 1198.50 205682 619 197 518 9 182 0.00 47.85 0 15
04/05/2015 1198.62 206036 354 196 392 18 182 0.00 47.85 0 14
04/06/2015 1198.74 206389 353 196 376 2 182 0.05 47.90 0 14
04/07/2015 1198.91 206890 501 198 451 0 182 1.21 49.11 0 16
04/08/2015 1199.04 207274 384 198 392 0 182 0.81 49.92 0 16
04/09/2015 1199.18 207690 416 198 415 7 182 0.00 49.92 0 16
04/10/2015 1199.31 208076 386 196 400 9 182 0.00 49.92 0 14
04/11/2015 1199.31 208076 0 196 205 9 182 0.00 49.92 0 14
04/12/2015 1199.31 208076 -- 202 237 35 182 0.00 49.92 0 20
04/13/2015 1199.35 208195 119 201 288 27 182 0.00 49.92 0 19
04/14/2015 1199.54 208759 564 196 490 10 182 0.00 49.92 0 14
04/15/2015 1199.80 209531 772 196 593 8 182 0.00 49.92 0 14
04/16/2015 1200.11 210454 923 197 673 11 182 0.00 49.92 0 15
04/17/2015 1200.54 211742 1288 200 860 11 183 0.00 49.92 0 17
04/18/2015 1200.97 213029 1287 199 860 12 183 0.00 49.92 0 16
04/19/2015 1201.24 213843 814 203 625 12 183 0.00 49.92 0 20
04/20/2015 -- -- -- -- -- -- -- -- -- -- --

Later | Latest

Warning! This data is preliminary and subject to revision.

Show WHI Map | Plot WHI Data | 1 Month WHI Data | Real-Time WHI Data | WHI Info